createdAt,value
2023-05-21T00:00:22.254Z,17.69
2023-05-21T00:02:49.469Z,17.67
2023-05-21T00:05:18.416Z,17.69
2023-05-21T00:07:45.980Z,17.70
2023-05-21T00:10:13.259Z,17.65
2023-05-21T00:12:41.811Z,17.67
2023-05-21T00:15:09.257Z,17.68
2023-05-21T00:17:37.007Z,17.65
2023-05-21T00:20:09.115Z,17.64
2023-05-21T00:22:36.391Z,17.61
2023-05-21T00:25:04.119Z,17.61
2023-05-21T00:27:30.798Z,17.60
2023-05-21T00:29:57.831Z,17.59
2023-05-21T00:32:24.590Z,17.63
2023-05-21T00:34:51.409Z,17.61
2023-05-21T00:37:18.109Z,17.63
2023-05-21T00:39:44.657Z,17.60
2023-05-21T00:42:12.423Z,17.70
2023-05-21T00:44:39.357Z,17.71
2023-05-21T00:47:06.692Z,17.67
2023-05-21T00:49:33.320Z,17.71
2023-05-21T00:52:01.682Z,17.72
2023-05-21T00:54:29.518Z,17.72
2023-05-21T00:56:56.587Z,17.73
2023-05-21T00:59:24.145Z,17.76
2023-05-21T01:01:56.114Z,17.78
2023-05-21T01:04:23.617Z,17.74
2023-05-21T01:06:50.290Z,17.78
2023-05-21T01:09:17.199Z,17.80
2023-05-21T01:11:47.806Z,17.80
2023-05-21T01:14:16.178Z,17.90
2023-05-21T01:16:48.604Z,17.95
2023-05-21T01:19:22.692Z,17.92
2023-05-21T01:21:56.809Z,17.96
2023-05-21T01:24:23.528Z,17.98
2023-05-21T01:26:50.130Z,18.02
2023-05-21T01:29:16.834Z,18.04
2023-05-21T01:32:10.494Z,18.07
2023-05-21T01:34:45.832Z,18.04
2023-05-21T01:37:23.548Z,18.04
2023-05-21T01:39:57.300Z,18.01
2023-05-21T01:42:24.864Z,18.00
2023-05-21T01:44:55.761Z,18.05
2023-05-21T01:47:28.125Z,18.05
2023-05-21T01:49:55.479Z,18.08
2023-05-21T01:52:22.620Z,18.09
2023-05-21T01:54:51.069Z,18.09
2023-05-21T01:57:18.607Z,18.06
2023-05-21T01:59:45.683Z,18.12
2023-05-21T02:02:12.360Z,18.07
2023-05-21T02:04:41.395Z,18.07
2023-05-21T02:07:08.151Z,18.10
2023-05-21T02:09:34.812Z,18.06
2023-05-21T02:12:03.381Z,18.07
2023-05-21T02:14:30.059Z,18.08
2023-05-21T02:16:58.053Z,18.09
2023-05-21T02:19:24.738Z,18.08
2023-05-21T02:21:51.407Z,18.06
2023-05-21T02:24:18.123Z,18.07
2023-05-21T02:26:44.808Z,18.01
2023-05-21T02:29:11.507Z,18.04
2023-05-21T02:31:38.155Z,18.04
2023-05-21T02:34:04.826Z,18.04
2023-05-21T02:36:33.417Z,18.05
2023-05-21T02:39:01.775Z,18.04
2023-05-21T02:41:28.470Z,18.03
2023-05-21T02:43:55.104Z,17.99
2023-05-21T02:46:21.747Z,17.91
2023-05-21T02:48:48.354Z,17.96
2023-05-21T02:51:14.992Z,17.98
2023-05-21T02:53:41.588Z,17.98
2023-05-21T02:56:08.245Z,17.91
2023-05-21T02:58:35.033Z,17.97
2023-05-21T03:01:01.766Z,17.94
2023-05-21T03:03:28.590Z,17.95
2023-05-21T03:05:55.333Z,17.94
2023-05-21T03:08:21.932Z,17.97
2023-05-21T03:10:48.981Z,17.90
2023-05-21T03:13:15.714Z,17.94
2023-05-21T03:15:44.015Z,17.94
2023-05-21T03:18:11.832Z,17.91
2023-05-21T03:20:43.774Z,17.88
2023-05-21T03:23:14.243Z,17.87
2023-05-21T03:25:42.957Z,17.84
2023-05-21T03:28:10.183Z,17.88
2023-05-21T03:30:38.312Z,17.87
2023-05-21T03:33:05.180Z,17.91
2023-05-21T03:35:31.920Z,17.96
2023-05-21T03:37:58.526Z,17.95
2023-05-21T03:40:25.189Z,17.97
2023-05-21T03:42:52.062Z,17.98
2023-05-21T03:45:18.663Z,18.01
2023-05-21T03:47:45.331Z,18.02
2023-05-21T03:50:12.469Z,18.00
2023-05-21T03:52:39.101Z,17.99
2023-05-21T03:55:06.784Z,18.03
2023-05-21T03:57:33.514Z,17.98
2023-05-21T04:00:00.299Z,18.03
2023-05-21T04:02:27.557Z,18.04
2023-05-21T04:04:56.030Z,18.04
2023-05-21T04:07:22.940Z,18.05
2023-05-21T04:09:49.688Z,18.08
2023-05-21T04:12:18.139Z,18.09
2023-05-21T04:14:44.816Z,18.07
2023-05-21T04:17:12.757Z,18.11
2023-05-21T04:19:39.727Z,18.05
2023-05-21T04:22:06.513Z,18.09
2023-05-21T04:24:33.161Z,18.16
2023-05-21T04:27:01.611Z,18.19
2023-05-21T04:29:30.037Z,18.21
2023-05-21T04:31:56.777Z,18.20
2023-05-21T04:34:23.429Z,18.18
2023-05-21T04:36:50.056Z,18.23
2023-05-21T04:39:17.180Z,18.29
2023-05-21T04:41:44.358Z,18.29
2023-05-21T04:44:15.143Z,18.35
2023-05-21T04:46:42.830Z,18.47
2023-05-21T04:49:10.290Z,18.56
2023-05-21T04:51:38.070Z,18.64
2023-05-21T04:54:04.953Z,18.68
2023-05-21T04:56:32.061Z,18.73
2023-05-21T04:58:59.066Z,18.69
2023-05-21T05:01:27.388Z,18.80
2023-05-21T05:03:54.162Z,18.84
2023-05-21T05:06:21.512Z,18.83
2023-05-21T05:08:48.216Z,18.80
2023-05-21T05:11:14.809Z,18.80
2023-05-21T05:13:44.521Z,18.76
2023-05-21T05:16:12.901Z,18.82
2023-05-21T05:18:39.608Z,18.73
2023-05-21T05:21:06.308Z,18.88
2023-05-21T05:23:32.909Z,18.94
2023-05-21T05:25:59.512Z,18.97
2023-05-21T05:28:26.164Z,19.05
2023-05-21T05:30:52.818Z,19.08
2023-05-21T05:33:19.559Z,19.05
2023-05-21T05:35:46.287Z,19.07
2023-05-21T05:38:13.625Z,19.27
2023-05-21T05:40:40.517Z,19.55
2023-05-21T05:43:07.177Z,19.72
2023-05-21T05:45:33.865Z,19.88
2023-05-21T05:48:00.675Z,20.21
2023-05-21T05:50:27.646Z,20.51
2023-05-21T05:52:54.261Z,20.58
2023-05-21T05:55:22.043Z,20.70
2023-05-21T05:57:48.724Z,20.91
2023-05-21T06:00:15.810Z,21.09
2023-05-21T06:02:42.534Z,21.31
2023-05-21T06:05:10.299Z,21.47
2023-05-21T06:07:40.386Z,21.55
2023-05-21T06:10:07.957Z,21.50
2023-05-21T06:12:35.188Z,21.54
2023-05-21T06:15:02.068Z,21.57
2023-05-21T06:17:28.842Z,21.42
2023-05-21T06:19:55.632Z,21.45
2023-05-21T06:22:24.935Z,21.31
2023-05-21T06:24:52.290Z,21.33
2023-05-21T06:27:18.963Z,21.40
2023-05-21T06:29:45.786Z,21.52
2023-05-21T06:32:12.446Z,21.58
2023-05-21T06:34:39.068Z,21.77
2023-05-21T06:37:05.858Z,21.89
2023-05-21T06:39:32.452Z,21.95
2023-05-21T06:41:59.140Z,22.06
2023-05-21T06:44:25.743Z,22.05
2023-05-21T06:46:52.393Z,22.06
2023-05-21T06:49:18.974Z,22.12
2023-05-21T06:51:45.617Z,22.14
2023-05-21T06:54:13.103Z,22.12
2023-05-21T06:56:40.659Z,22.22
2023-05-21T06:59:07.361Z,22.25
2023-05-21T07:01:34.871Z,22.16
2023-05-21T07:04:01.534Z,22.27
2023-05-21T07:06:28.154Z,22.62
2023-05-21T07:08:54.861Z,22.51
2023-05-21T07:11:21.709Z,22.59
2023-05-21T07:13:48.468Z,22.55
2023-05-21T07:16:17.069Z,22.30
2023-05-21T07:18:43.787Z,22.29
2023-05-21T07:21:10.617Z,22.23
2023-05-21T07:23:37.304Z,22.15
2023-05-21T07:26:03.990Z,22.20
2023-05-21T07:28:30.801Z,22.39
2023-05-21T07:30:57.443Z,22.50
2023-05-21T07:33:24.116Z,22.63
2023-05-21T07:35:50.736Z,22.74
2023-05-21T07:38:17.716Z,22.67
2023-05-21T07:40:44.515Z,22.74
2023-05-21T07:43:11.159Z,22.85
2023-05-21T07:45:37.977Z,22.97
2023-05-21T07:48:05.005Z,23.05
2023-05-21T07:50:31.907Z,23.19
2023-05-21T07:52:58.592Z,23.55
2023-05-21T07:55:25.224Z,23.78
2023-05-21T07:57:52.478Z,23.58
2023-05-21T08:00:19.323Z,23.71
2023-05-21T08:02:46.261Z,23.71
2023-05-21T08:05:13.239Z,23.75
2023-05-21T08:07:40.169Z,23.65
2023-05-21T08:10:07.610Z,23.67
2023-05-21T08:12:34.402Z,23.79
2023-05-21T08:15:01.055Z,23.74
2023-05-21T08:17:28.829Z,23.53
2023-05-21T08:19:55.558Z,23.37
2023-05-21T08:22:22.297Z,23.16
2023-05-21T08:24:48.939Z,22.93
2023-05-21T08:27:16.287Z,23.09
2023-05-21T08:29:43.344Z,23.08
2023-05-21T08:32:10.181Z,23.14
2023-05-21T08:34:36.854Z,23.17
2023-05-21T08:37:03.610Z,23.39
2023-05-21T08:39:30.216Z,23.65
2023-05-21T08:42:09.484Z,23.96
2023-05-21T08:44:42.192Z,24.16
2023-05-21T08:47:11.687Z,24.34
2023-05-21T08:49:38.332Z,23.82
2023-05-21T08:52:06.252Z,23.94
2023-05-21T08:54:33.352Z,24.14
2023-05-21T08:57:02.402Z,24.72
2023-05-21T08:59:29.131Z,24.95
2023-05-21T09:01:57.811Z,24.96
2023-05-21T09:04:25.384Z,24.91
2023-05-21T09:06:52.187Z,24.93
2023-05-21T09:09:43.433Z,25.01
2023-05-21T09:12:10.356Z,25.19
2023-05-21T09:14:37.589Z,25.27
2023-05-21T09:17:04.417Z,25.51
2023-05-21T09:19:32.315Z,25.29
2023-05-21T09:22:03.774Z,24.95
2023-05-21T09:24:36.034Z,25.16
2023-05-21T09:27:06.479Z,25.40
2023-05-21T09:29:34.459Z,25.36
2023-05-21T09:32:07.061Z,25.08
2023-05-21T09:34:36.292Z,24.77
2023-05-21T09:37:03.737Z,24.57
2023-05-21T09:39:33.538Z,24.69
2023-05-21T09:42:00.221Z,24.33
2023-05-21T09:44:27.110Z,24.31
2023-05-21T09:46:58.994Z,24.22
2023-05-21T09:49:29.205Z,24.11
2023-05-21T09:51:59.131Z,23.95
2023-05-21T09:54:31.513Z,24.08
2023-05-21T09:57:00.024Z,24.49
2023-05-21T09:59:36.378Z,24.36
2023-05-21T10:02:03.481Z,24.23
2023-05-21T10:04:31.763Z,24.24
2023-05-21T10:07:00.002Z,24.24
2023-05-21T10:09:28.519Z,24.33
2023-05-21T10:11:55.202Z,24.62
2023-05-21T10:14:25.555Z,24.23
2023-05-21T10:16:54.278Z,24.06
2023-05-21T10:19:22.724Z,24.18
2023-05-21T10:21:52.587Z,24.23
2023-05-21T10:24:20.059Z,24.27
2023-05-21T10:26:47.672Z,24.28
2023-05-21T10:29:17.368Z,24.33
2023-05-21T10:31:49.747Z,24.24
2023-05-21T10:34:16.761Z,24.19
2023-05-21T10:36:44.463Z,24.13
2023-05-21T10:39:13.071Z,23.92
2023-05-21T10:41:51.274Z,23.96
2023-05-21T10:44:33.745Z,23.88
2023-05-21T10:47:29.303Z,23.97
2023-05-21T10:50:14.144Z,24.81
2023-05-21T10:53:10.639Z,24.83
2023-05-21T10:56:03.364Z,24.31
2023-05-21T10:58:51.755Z,23.76
2023-05-21T11:01:19.611Z,23.71
2023-05-21T11:03:48.738Z,23.59
2023-05-21T11:06:26.655Z,23.48
2023-05-21T11:08:56.359Z,23.17
2023-05-21T11:11:46.409Z,23.29
2023-05-21T11:14:39.628Z,23.34
2023-05-21T11:17:06.759Z,23.23
2023-05-21T11:19:47.583Z,23.32
2023-05-21T11:22:20.265Z,23.23
2023-05-21T11:24:48.833Z,23.13
2023-05-21T11:27:36.848Z,23.03
2023-05-21T11:30:08.752Z,23.07
2023-05-21T11:32:57.577Z,23.07
2023-05-21T11:35:24.291Z,22.90
2023-05-21T11:37:54.214Z,23.01
2023-05-21T11:40:28.332Z,22.95
2023-05-21T11:42:56.431Z,22.97
2023-05-21T11:45:28.436Z,22.67
2023-05-21T11:47:56.345Z,22.62
2023-05-21T11:50:23.143Z,22.59
2023-05-21T11:52:50.625Z,22.55
2023-05-21T11:55:21.749Z,22.44
2023-05-21T11:57:48.788Z,22.44
2023-05-21T12:00:16.580Z,22.46
2023-05-21T12:02:53.096Z,22.38
2023-05-21T12:05:20.714Z,22.44
2023-05-21T12:07:50.077Z,22.39
2023-05-21T12:10:17.325Z,22.41
2023-05-21T12:12:54.852Z,22.39
2023-05-21T12:15:24.492Z,22.47
2023-05-21T12:17:53.089Z,22.51
2023-05-21T12:20:20.124Z,22.48
2023-05-21T12:22:48.803Z,22.48
2023-05-21T12:25:19.426Z,22.28
2023-05-21T12:27:46.709Z,22.29
2023-05-21T12:30:13.886Z,22.20
2023-05-21T12:32:47.219Z,22.00
2023-05-21T12:35:23.783Z,21.85
2023-05-21T12:37:51.194Z,21.77
2023-05-21T12:40:18.297Z,21.64
2023-05-21T12:42:45.027Z,21.50
2023-05-21T12:45:12.124Z,21.43
2023-05-21T12:47:39.071Z,21.34
2023-05-21T12:50:11.766Z,21.38
2023-05-21T12:52:40.488Z,21.28
2023-05-21T12:55:09.597Z,21.18
2023-05-21T12:57:40.991Z,21.14
2023-05-21T13:00:08.936Z,20.97
2023-05-21T13:02:41.033Z,21.05
2023-05-21T13:05:09.832Z,21.10
2023-05-21T13:07:39.371Z,21.11
2023-05-21T13:10:07.248Z,21.24
2023-05-21T13:12:34.707Z,21.26
2023-05-21T13:15:03.282Z,21.20
2023-05-21T13:17:30.502Z,21.33
2023-05-21T13:20:08.771Z,21.39
2023-05-21T13:22:43.798Z,21.54
2023-05-21T13:25:11.825Z,21.48
2023-05-21T13:27:39.483Z,21.53
2023-05-21T13:30:07.118Z,21.66
2023-05-21T13:32:34.034Z,21.75
2023-05-21T13:35:00.998Z,21.96
2023-05-21T13:37:27.901Z,22.16
2023-05-21T13:39:55.003Z,22.08
2023-05-21T13:42:21.815Z,22.08
2023-05-21T13:44:48.488Z,22.25
2023-05-21T13:47:15.728Z,22.51
2023-05-21T13:49:42.659Z,22.53
2023-05-21T13:52:09.555Z,22.40
2023-05-21T13:54:36.830Z,22.53
2023-05-21T13:57:03.774Z,22.63
2023-05-21T13:59:33.252Z,22.66
2023-05-21T14:02:00.612Z,22.66
2023-05-21T14:04:27.364Z,22.67
2023-05-21T14:06:54.124Z,22.90
2023-05-21T14:09:21.457Z,23.02
2023-05-21T14:11:48.060Z,23.05
2023-05-21T14:14:18.980Z,23.07
2023-05-21T14:16:47.293Z,22.98
2023-05-21T14:19:14.677Z,22.95
2023-05-21T14:21:42.157Z,22.88
2023-05-21T14:24:08.773Z,22.92
2023-05-21T14:26:37.388Z,22.94
2023-05-21T14:29:04.027Z,22.97
2023-05-21T14:31:31.847Z,22.87
2023-05-21T14:33:58.584Z,22.92
2023-05-21T14:36:25.202Z,22.89
2023-05-21T14:38:51.855Z,22.96
2023-05-21T14:41:18.466Z,22.95
2023-05-21T14:43:45.067Z,22.84
2023-05-21T14:46:11.690Z,22.80
2023-05-21T14:48:38.368Z,22.80
2023-05-21T14:51:04.980Z,22.68
2023-05-21T14:53:32.363Z,22.53
2023-05-21T14:55:59.109Z,22.48
2023-05-21T14:58:25.766Z,22.38
2023-05-21T15:00:52.441Z,22.41
2023-05-21T15:03:19.212Z,22.28
2023-05-21T15:05:45.926Z,22.17
2023-05-21T15:08:12.535Z,22.02
2023-05-21T15:10:39.249Z,21.97
2023-05-21T15:13:05.896Z,21.96
2023-05-21T15:15:32.541Z,21.87
2023-05-21T15:17:59.380Z,22.00
2023-05-21T15:20:25.995Z,22.12
2023-05-21T15:22:59.093Z,22.14
2023-05-21T15:25:35.717Z,22.27
2023-05-21T15:28:02.568Z,22.35
2023-05-21T15:30:29.228Z,22.43
2023-05-21T15:32:55.949Z,22.45
2023-05-21T15:35:22.670Z,22.46
2023-05-21T15:37:49.407Z,22.44
2023-05-21T15:40:16.122Z,22.36
2023-05-21T15:42:42.730Z,22.30
2023-05-21T15:45:09.715Z,22.23
2023-05-21T15:47:36.610Z,22.17
2023-05-21T15:50:03.334Z,22.12
2023-05-21T15:52:29.963Z,22.15
2023-05-21T15:54:56.585Z,22.14
2023-05-21T15:57:23.293Z,22.11
2023-05-21T15:59:50.763Z,22.09
2023-05-21T16:02:17.468Z,22.06
2023-05-21T16:04:44.120Z,22.03
2023-05-21T16:07:10.828Z,21.98
2023-05-21T16:09:38.544Z,21.96
2023-05-21T16:12:05.613Z,21.92
2023-05-21T16:14:32.215Z,21.84
2023-05-21T16:16:58.940Z,21.90
2023-05-21T16:19:25.777Z,21.90
2023-05-21T16:21:52.539Z,21.89
2023-05-21T16:24:19.193Z,21.90
2023-05-21T16:26:46.334Z,21.87
2023-05-21T16:29:13.210Z,21.83
2023-05-21T16:31:39.865Z,21.87
2023-05-21T16:34:06.939Z,21.86
2023-05-21T16:36:33.853Z,21.87
2023-05-21T16:39:00.502Z,21.85
2023-05-21T16:41:27.265Z,21.87
2023-05-21T16:43:54.400Z,21.93
2023-05-21T16:46:21.614Z,22.09
2023-05-21T16:48:48.363Z,22.03
2023-05-21T16:51:15.102Z,22.02
2023-05-21T16:53:41.691Z,21.83
2023-05-21T16:56:08.340Z,21.76
2023-05-21T16:58:36.190Z,21.66
2023-05-21T17:01:03.922Z,21.57
2023-05-21T17:03:32.565Z,21.48
2023-05-21T17:05:59.314Z,21.37
2023-05-21T17:08:26.115Z,21.32
2023-05-21T17:10:52.796Z,21.24
2023-05-21T17:13:22.589Z,21.26
2023-05-21T17:15:51.175Z,21.19
2023-05-21T17:18:17.962Z,21.15
2023-05-21T17:20:44.889Z,21.14
2023-05-21T17:23:12.232Z,21.08
2023-05-21T17:25:39.745Z,21.04
2023-05-21T17:28:06.735Z,20.99
2023-05-21T17:30:33.521Z,20.93
2023-05-21T17:33:02.326Z,20.94
2023-05-21T17:35:29.480Z,20.85
2023-05-21T17:37:56.309Z,20.78
2023-05-21T17:40:24.754Z,20.71
2023-05-21T17:42:52.473Z,20.75
2023-05-21T17:45:19.511Z,20.67
2023-05-21T17:47:46.386Z,20.62
2023-05-21T17:50:13.325Z,20.58
2023-05-21T17:52:40.073Z,20.49
2023-05-21T17:55:07.930Z,20.41
2023-05-21T17:57:35.998Z,20.34
2023-05-21T18:00:05.118Z,20.31
2023-05-21T18:02:31.884Z,20.21
2023-05-21T18:04:58.670Z,20.17
2023-05-21T18:07:25.738Z,20.13
2023-05-21T18:09:52.407Z,20.11
2023-05-21T18:12:19.082Z,20.04
2023-05-21T18:14:45.955Z,19.98
2023-05-21T18:17:12.886Z,19.86
2023-05-21T18:19:39.542Z,19.85
2023-05-21T18:22:06.546Z,19.75
2023-05-21T18:24:33.294Z,19.71
2023-05-21T18:26:59.910Z,19.70
2023-05-21T18:29:26.584Z,19.67
2023-05-21T18:31:53.545Z,19.61
2023-05-21T18:34:20.292Z,19.62
2023-05-21T18:36:48.198Z,19.62
2023-05-21T18:39:14.967Z,19.59
2023-05-21T18:41:41.748Z,19.64
2023-05-21T18:44:08.905Z,19.59
2023-05-21T18:46:36.165Z,19.56
2023-05-21T18:49:02.913Z,19.54
2023-05-21T18:51:29.610Z,19.48
2023-05-21T18:53:56.269Z,19.44
2023-05-21T18:56:22.977Z,19.48
2023-05-21T18:58:49.846Z,19.42
2023-05-21T19:01:17.900Z,19.41
2023-05-21T19:03:44.629Z,19.35
2023-05-21T19:06:11.289Z,19.40
2023-05-21T19:08:37.991Z,19.35
2023-05-21T19:11:05.002Z,19.32
2023-05-21T19:13:31.608Z,19.31
2023-05-21T19:15:58.758Z,19.30
2023-05-21T19:18:31.631Z,19.21
2023-05-21T19:21:00.273Z,19.19
2023-05-21T19:23:27.113Z,19.17
2023-05-21T19:25:53.816Z,19.15
2023-05-21T19:28:20.482Z,19.17
2023-05-21T19:30:47.152Z,19.24
2023-05-21T19:33:13.880Z,19.19
2023-05-21T19:35:42.004Z,19.16
2023-05-21T19:38:12.158Z,19.17
2023-05-21T19:40:38.920Z,19.09
2023-05-21T19:43:05.870Z,19.04
2023-05-21T19:45:32.666Z,19.05
2023-05-21T19:47:59.889Z,19.11
2023-05-21T19:50:28.846Z,19.04
2023-05-21T19:52:57.301Z,19.01
2023-05-21T19:55:24.733Z,18.98
2023-05-21T19:57:51.704Z,19.00
2023-05-21T20:00:19.034Z,19.04
2023-05-21T20:02:46.263Z,19.08
2023-05-21T20:05:13.295Z,19.09
2023-05-21T20:07:40.124Z,19.15
2023-05-21T20:10:07.598Z,19.06
2023-05-21T20:12:34.308Z,19.02
2023-05-21T20:15:01.236Z,18.99
2023-05-21T20:17:28.804Z,19.01
2023-05-21T20:19:57.329Z,18.94
2023-05-21T20:22:24.032Z,18.86
2023-05-21T20:24:50.765Z,18.87
2023-05-21T20:27:19.538Z,18.87
2023-05-21T20:29:46.817Z,18.89
2023-05-21T20:32:13.701Z,18.87
2023-05-21T20:34:54.378Z,18.77
2023-05-21T20:37:28.330Z,18.68
2023-05-21T20:39:57.818Z,18.68
2023-05-21T20:42:28.526Z,18.61
2023-05-21T20:44:58.840Z,18.70
2023-05-21T20:47:25.516Z,18.67
2023-05-21T20:49:53.698Z,18.64
2023-05-21T20:52:21.022Z,18.64
2023-05-21T20:54:48.936Z,18.62
2023-05-21T20:57:16.135Z,18.63
2023-05-21T20:59:43.140Z,18.55
2023-05-21T21:02:12.710Z,18.59
2023-05-21T21:04:39.873Z,18.51
2023-05-21T21:07:08.120Z,18.46
2023-05-21T21:09:34.763Z,18.41
2023-05-21T21:12:11.400Z,18.38
2023-05-21T21:14:48.154Z,18.33
2023-05-21T21:17:14.934Z,18.30
2023-05-21T21:19:41.587Z,18.34
2023-05-21T21:22:08.236Z,18.25
2023-05-21T21:24:34.950Z,18.18
2023-05-21T21:27:01.739Z,18.17
2023-05-21T21:29:28.405Z,18.08
2023-05-21T21:31:55.090Z,18.04
2023-05-21T21:34:23.568Z,17.94
2023-05-21T21:36:50.769Z,17.88
2023-05-21T21:39:20.835Z,17.93
2023-05-21T21:41:47.502Z,17.80
2023-05-21T21:44:14.176Z,17.80
2023-05-21T21:46:40.908Z,17.66
2023-05-21T21:49:07.646Z,17.63
2023-05-21T21:51:34.947Z,17.63
2023-05-21T21:54:01.598Z,17.44
2023-05-21T21:56:30.089Z,17.42
2023-05-21T21:58:56.808Z,17.40
2023-05-21T22:01:23.593Z,17.40
2023-05-21T22:03:50.337Z,17.38
2023-05-21T22:06:17.056Z,17.37
2023-05-21T22:08:43.703Z,17.27
2023-05-21T22:11:10.859Z,17.25
2023-05-21T22:13:37.774Z,17.17
2023-05-21T22:16:05.515Z,17.16
2023-05-21T22:18:40.463Z,17.09
2023-05-21T22:21:09.958Z,17.01
2023-05-21T22:23:56.904Z,16.97
2023-05-21T22:26:23.553Z,16.95
2023-05-21T22:28:51.107Z,16.89
2023-05-21T22:31:17.829Z,16.92
2023-05-21T22:33:44.495Z,16.87
2023-05-21T22:36:11.173Z,16.85
2023-05-21T22:38:37.946Z,16.75
2023-05-21T22:41:04.654Z,16.76
2023-05-21T22:43:34.759Z,16.70
2023-05-21T22:46:01.974Z,16.66
2023-05-21T22:48:30.836Z,16.64
2023-05-21T22:50:58.476Z,16.67
2023-05-21T22:53:25.779Z,16.58
2023-05-21T22:55:52.466Z,16.48
2023-05-21T22:58:19.232Z,16.46
2023-05-21T23:00:46.951Z,16.42
2023-05-21T23:03:13.656Z,16.38
2023-05-21T23:05:40.742Z,16.36
2023-05-21T23:08:07.584Z,16.34
2023-05-21T23:10:35.581Z,16.36
2023-05-21T23:13:02.289Z,16.38
2023-05-21T23:15:29.640Z,16.33
2023-05-21T23:17:57.256Z,16.27
2023-05-21T23:20:24.661Z,16.29
2023-05-21T23:22:51.821Z,16.31
2023-05-21T23:25:18.494Z,16.26
2023-05-21T23:27:45.381Z,16.20
2023-05-21T23:30:12.134Z,16.18
2023-05-21T23:32:38.947Z,16.23
2023-05-21T23:35:06.091Z,16.22
2023-05-21T23:37:32.695Z,16.19
2023-05-21T23:39:59.270Z,16.14
2023-05-21T23:42:25.876Z,16.14
2023-05-21T23:44:52.471Z,16.06
2023-05-21T23:47:19.158Z,16.06
2023-05-21T23:49:45.728Z,16.20
2023-05-21T23:52:13.607Z,16.26
2023-05-21T23:54:40.187Z,16.21
2023-05-21T23:57:06.819Z,16.33
2023-05-21T23:59:33.437Z,16.31
